sensor_id;sensor_type;location;lat;lon;timestamp;P1;durP1;ratioP1;P2;durP2;ratioP2
73599;SDS011;61877;48.246;9.220;2023-07-20T00:00:00;6.03;;;1.98;;
73599;SDS011;61877;48.246;9.220;2023-07-20T00:02:26;7.07;;;2.00;;
73599;SDS011;61877;48.246;9.220;2023-07-20T00:04:52;8.05;;;2.08;;
73599;SDS011;61877;48.246;9.220;2023-07-20T00:07:17;7.33;;;2.20;;
73599;SDS011;61877;48.246;9.220;2023-07-20T00:09:43;7.63;;;2.30;;
73599;SDS011;61877;48.246;9.220;2023-07-20T00:12:08;7.00;;;2.57;;
73599;SDS011;61877;48.246;9.220;2023-07-20T00:14:34;7.33;;;2.17;;
73599;SDS011;61877;48.246;9.220;2023-07-20T00:16:59;5.93;;;2.03;;
73599;SDS011;61877;48.246;9.220;2023-07-20T00:19:26;6.37;;;2.40;;
73599;SDS011;61877;48.246;9.220;2023-07-20T00:21:53;6.72;;;2.38;;
73599;SDS011;61877;48.246;9.220;2023-07-20T00:24:19;6.07;;;2.08;;
73599;SDS011;61877;48.246;9.220;2023-07-20T00:26:45;7.50;;;2.70;;
73599;SDS011;61877;48.246;9.220;2023-07-20T00:29:11;6.55;;;2.40;;
73599;SDS011;61877;48.246;9.220;2023-07-20T00:31:36;6.60;;;2.50;;
73599;SDS011;61877;48.246;9.220;2023-07-20T00:34:02;7.03;;;2.30;;
73599;SDS011;61877;48.246;9.220;2023-07-20T00:36:29;8.43;;;2.53;;
73599;SDS011;61877;48.246;9.220;2023-07-20T00:38:55;7.22;;;2.65;;
73599;SDS011;61877;48.246;9.220;2023-07-20T00:41:20;8.53;;;2.60;;
73599;SDS011;61877;48.246;9.220;2023-07-20T00:43:45;7.87;;;3.03;;
73599;SDS011;61877;48.246;9.220;2023-07-20T00:46:11;8.00;;;3.10;;
73599;SDS011;61877;48.246;9.220;2023-07-20T00:48:38;7.30;;;2.53;;
73599;SDS011;61877;48.246;9.220;2023-07-20T00:51:06;8.60;;;3.05;;
73599;SDS011;61877;48.246;9.220;2023-07-20T00:53:33;8.38;;;2.90;;
73599;SDS011;61877;48.246;9.220;2023-07-20T00:55:59;7.95;;;2.80;;
73599;SDS011;61877;48.246;9.220;2023-07-20T00:58:25;7.37;;;2.57;;
73599;SDS011;61877;48.246;9.220;2023-07-20T01:00:50;7.75;;;3.15;;
73599;SDS011;61877;48.246;9.220;2023-07-20T01:03:16;10.93;;;3.20;;
73599;SDS011;61877;48.246;9.220;2023-07-20T01:05:42;9.37;;;2.90;;
73599;SDS011;61877;48.246;9.220;2023-07-20T01:08:18;8.25;;;3.05;;
73599;SDS011;61877;48.246;9.220;2023-07-20T01:10:53;8.35;;;2.90;;
73599;SDS011;61877;48.246;9.220;2023-07-20T01:13:24;8.37;;;3.20;;
73599;SDS011;61877;48.246;9.220;2023-07-20T01:15:53;9.55;;;3.00;;
73599;SDS011;61877;48.246;9.220;2023-07-20T01:18:22;8.73;;;3.00;;
73599;SDS011;61877;48.246;9.220;2023-07-20T01:20:47;9.97;;;3.00;;
73599;SDS011;61877;48.246;9.220;2023-07-20T01:23:27;9.77;;;3.17;;
73599;SDS011;61877;48.246;9.220;2023-07-20T01:26:24;7.65;;;2.88;;
73599;SDS011;61877;48.246;9.220;2023-07-20T01:29:15;7.40;;;2.85;;
73599;SDS011;61877;48.246;9.220;2023-07-20T01:31:50;7.80;;;2.93;;
73599;SDS011;61877;48.246;9.220;2023-07-20T01:34:18;7.35;;;2.70;;
73599;SDS011;61877;48.246;9.220;2023-07-20T01:36:45;8.07;;;3.25;;
73599;SDS011;61877;48.246;9.220;2023-07-20T01:39:14;7.57;;;3.00;;
73599;SDS011;61877;48.246;9.220;2023-07-20T01:41:41;7.07;;;2.88;;
73599;SDS011;61877;48.246;9.220;2023-07-20T01:44:07;8.67;;;2.80;;
73599;SDS011;61877;48.246;9.220;2023-07-20T01:46:33;7.85;;;2.70;;
73599;SDS011;61877;48.246;9.220;2023-07-20T01:49:00;6.87;;;3.00;;
73599;SDS011;61877;48.246;9.220;2023-07-20T01:51:25;8.75;;;3.25;;
73599;SDS011;61877;48.246;9.220;2023-07-20T01:53:51;6.80;;;2.87;;
73599;SDS011;61877;48.246;9.220;2023-07-20T01:56:16;9.17;;;3.27;;
73599;SDS011;61877;48.246;9.220;2023-07-20T01:58:42;6.97;;;2.90;;
73599;SDS011;61877;48.246;9.220;2023-07-20T02:01:10;7.50;;;2.97;;
73599;SDS011;61877;48.246;9.220;2023-07-20T02:03:36;8.32;;;3.10;;
73599;SDS011;61877;48.246;9.220;2023-07-20T02:06:02;7.57;;;2.80;;
73599;SDS011;61877;48.246;9.220;2023-07-20T02:08:28;6.75;;;2.97;;
73599;SDS011;61877;48.246;9.220;2023-07-20T02:10:55;8.00;;;3.30;;
73599;SDS011;61877;48.246;9.220;2023-07-20T02:13:20;15.25;;;3.35;;
73599;SDS011;61877;48.246;9.220;2023-07-20T02:15:46;8.30;;;3.27;;
73599;SDS011;61877;48.246;9.220;2023-07-20T02:18:11;7.90;;;3.27;;
73599;SDS011;61877;48.246;9.220;2023-07-20T02:20:37;12.80;;;3.30;;
73599;SDS011;61877;48.246;9.220;2023-07-20T02:23:03;9.53;;;3.00;;
73599;SDS011;61877;48.246;9.220;2023-07-20T02:25:29;8.27;;;3.45;;
73599;SDS011;61877;48.246;9.220;2023-07-20T02:27:55;8.33;;;3.20;;
73599;SDS011;61877;48.246;9.220;2023-07-20T02:30:21;10.80;;;3.25;;
73599;SDS011;61877;48.246;9.220;2023-07-20T02:32:47;7.33;;;3.00;;
73599;SDS011;61877;48.246;9.220;2023-07-20T02:35:12;9.63;;;3.17;;
73599;SDS011;61877;48.246;9.220;2023-07-20T02:37:38;8.68;;;3.10;;
73599;SDS011;61877;48.246;9.220;2023-07-20T02:40:06;7.65;;;3.03;;
73599;SDS011;61877;48.246;9.220;2023-07-20T02:42:34;9.30;;;3.27;;
73599;SDS011;61877;48.246;9.220;2023-07-20T02:45:02;9.63;;;3.10;;
73599;SDS011;61877;48.246;9.220;2023-07-20T02:47:28;8.85;;;3.33;;
73599;SDS011;61877;48.246;9.220;2023-07-20T02:49:54;9.07;;;3.13;;
73599;SDS011;61877;48.246;9.220;2023-07-20T02:52:19;9.63;;;3.30;;
73599;SDS011;61877;48.246;9.220;2023-07-20T02:54:45;8.37;;;3.27;;
73599;SDS011;61877;48.246;9.220;2023-07-20T02:57:19;7.80;;;3.40;;
73599;SDS011;61877;48.246;9.220;2023-07-20T02:59:44;7.20;;;3.10;;
73599;SDS011;61877;48.246;9.220;2023-07-20T03:02:10;9.65;;;3.20;;
73599;SDS011;61877;48.246;9.220;2023-07-20T03:04:38;7.88;;;3.60;;
73599;SDS011;61877;48.246;9.220;2023-07-20T03:07:04;7.90;;;3.30;;
73599;SDS011;61877;48.246;9.220;2023-07-20T03:09:30;9.27;;;3.63;;
73599;SDS011;61877;48.246;9.220;2023-07-20T03:11:56;9.05;;;3.47;;
73599;SDS011;61877;48.246;9.220;2023-07-20T03:14:25;7.07;;;3.00;;
73599;SDS011;61877;48.246;9.220;2023-07-20T03:16:50;7.75;;;3.15;;
73599;SDS011;61877;48.246;9.220;2023-07-20T03:19:16;7.90;;;3.23;;
73599;SDS011;61877;48.246;9.220;2023-07-20T03:21:41;9.17;;;3.60;;
73599;SDS011;61877;48.246;9.220;2023-07-20T03:24:07;10.77;;;4.50;;
73599;SDS011;61877;48.246;9.220;2023-07-20T03:26:32;8.80;;;3.30;;
73599;SDS011;61877;48.246;9.220;2023-07-20T03:28:58;8.00;;;3.60;;
73599;SDS011;61877;48.246;9.220;2023-07-20T03:31:26;8.87;;;3.40;;
73599;SDS011;61877;48.246;9.220;2023-07-20T03:33:52;7.90;;;3.65;;
73599;SDS011;61877;48.246;9.220;2023-07-20T03:36:17;8.43;;;3.50;;
73599;SDS011;61877;48.246;9.220;2023-07-20T03:38:43;9.00;;;3.60;;
73599;SDS011;61877;48.246;9.220;2023-07-20T03:41:08;9.53;;;3.33;;
73599;SDS011;61877;48.246;9.220;2023-07-20T03:43:34;7.63;;;3.43;;
73599;SDS011;61877;48.246;9.220;2023-07-20T03:45:59;8.48;;;3.63;;
73599;SDS011;61877;48.246;9.220;2023-07-20T03:48:26;8.87;;;3.40;;
73599;SDS011;61877;48.246;9.220;2023-07-20T03:50:53;9.40;;;3.28;;
73599;SDS011;61877;48.246;9.220;2023-07-20T03:53:19;7.63;;;3.20;;
73599;SDS011;61877;48.246;9.220;2023-07-20T03:55:45;9.13;;;3.30;;
73599;SDS011;61877;48.246;9.220;2023-07-20T03:58:10;7.55;;;3.53;;
73599;SDS011;61877;48.246;9.220;2023-07-20T04:00:36;7.97;;;3.40;;
73599;SDS011;61877;48.246;9.220;2023-07-20T04:03:01;8.02;;;3.50;;
73599;SDS011;61877;48.246;9.220;2023-07-20T04:05:28;9.07;;;3.60;;
73599;SDS011;61877;48.246;9.220;2023-07-20T04:07:54;8.23;;;3.42;;
73599;SDS011;61877;48.246;9.220;2023-07-20T04:10:20;8.73;;;3.57;;
73599;SDS011;61877;48.246;9.220;2023-07-20T04:12:46;10.18;;;3.67;;
73599;SDS011;61877;48.246;9.220;2023-07-20T04:15:11;8.43;;;3.70;;
73599;SDS011;61877;48.246;9.220;2023-07-20T04:17:37;8.13;;;3.60;;
73599;SDS011;61877;48.246;9.220;2023-07-20T04:20:04;8.00;;;3.50;;
73599;SDS011;61877;48.246;9.220;2023-07-20T04:22:32;8.65;;;3.80;;
73599;SDS011;61877;48.246;9.220;2023-07-20T04:24:58;8.20;;;3.43;;
73599;SDS011;61877;48.246;9.220;2023-07-20T04:27:23;8.30;;;3.60;;
73599;SDS011;61877;48.246;9.220;2023-07-20T04:29:49;9.80;;;3.73;;
73599;SDS011;61877;48.246;9.220;2023-07-20T04:32:15;8.45;;;3.35;;
73599;SDS011;61877;48.246;9.220;2023-07-20T04:34:41;8.87;;;3.37;;
73599;SDS011;61877;48.246;9.220;2023-07-20T04:37:07;8.88;;;3.40;;
73599;SDS011;61877;48.246;9.220;2023-07-20T04:39:34;7.43;;;3.10;;
73599;SDS011;61877;48.246;9.220;2023-07-20T04:42:00;7.68;;;3.40;;
73599;SDS011;61877;48.246;9.220;2023-07-20T04:44:25;7.65;;;3.50;;
73599;SDS011;61877;48.246;9.220;2023-07-20T04:46:51;9.60;;;3.80;;
73599;SDS011;61877;48.246;9.220;2023-07-20T04:49:16;8.40;;;3.40;;
73599;SDS011;61877;48.246;9.220;2023-07-20T04:51:42;7.28;;;3.30;;
73599;SDS011;61877;48.246;9.220;2023-07-20T04:54:10;9.63;;;3.60;;
73599;SDS011;61877;48.246;9.220;2023-07-20T04:56:36;8.00;;;3.45;;
73599;SDS011;61877;48.246;9.220;2023-07-20T04:59:02;8.17;;;3.60;;
73599;SDS011;61877;48.246;9.220;2023-07-20T05:01:28;8.35;;;3.50;;
73599;SDS011;61877;48.246;9.220;2023-07-20T05:03:53;7.87;;;3.33;;
73599;SDS011;61877;48.246;9.220;2023-07-20T05:06:19;8.30;;;3.33;;
73599;SDS011;61877;48.246;9.220;2023-07-20T05:08:44;8.37;;;3.30;;
73599;SDS011;61877;48.246;9.220;2023-07-20T05:11:10;10.93;;;4.70;;
73599;SDS011;61877;48.246;9.220;2023-07-20T05:13:37;11.47;;;5.40;;
73599;SDS011;61877;48.246;9.220;2023-07-20T05:16:03;9.43;;;4.78;;
73599;SDS011;61877;48.246;9.220;2023-07-20T05:18:28;9.90;;;3.92;;
73599;SDS011;61877;48.246;9.220;2023-07-20T05:20:56;12.37;;;4.50;;
73599;SDS011;61877;48.246;9.220;2023-07-20T05:23:21;9.55;;;4.18;;
73599;SDS011;61877;48.246;9.220;2023-07-20T05:25:53;8.20;;;3.97;;
73599;SDS011;61877;48.246;9.220;2023-07-20T05:28:19;8.30;;;3.53;;
73599;SDS011;61877;48.246;9.220;2023-07-20T05:30:46;10.23;;;3.80;;
73599;SDS011;61877;48.246;9.220;2023-07-20T05:33:11;7.50;;;3.22;;
73599;SDS011;61877;48.246;9.220;2023-07-20T05:35:37;8.30;;;3.30;;
73599;SDS011;61877;48.246;9.220;2023-07-20T05:38:02;8.03;;;3.00;;
73599;SDS011;61877;48.246;9.220;2023-07-20T05:40:28;8.17;;;3.30;;
73599;SDS011;61877;48.246;9.220;2023-07-20T05:42:53;7.72;;;3.17;;
73599;SDS011;61877;48.246;9.220;2023-07-20T05:45:19;8.70;;;3.10;;
73599;SDS011;61877;48.246;9.220;2023-07-20T05:47:46;7.50;;;3.38;;
73599;SDS011;61877;48.246;9.220;2023-07-20T05:50:11;10.63;;;3.47;;
73599;SDS011;61877;48.246;9.220;2023-07-20T05:52:36;8.37;;;3.30;;
73599;SDS011;61877;48.246;9.220;2023-07-20T05:55:02;8.83;;;3.50;;
73599;SDS011;61877;48.246;9.220;2023-07-20T05:57:28;7.25;;;3.20;;
73599;SDS011;61877;48.246;9.220;2023-07-20T05:59:54;8.10;;;3.03;;
73599;SDS011;61877;48.246;9.220;2023-07-20T06:02:19;9.40;;;3.67;;
73599;SDS011;61877;48.246;9.220;2023-07-20T06:04:46;7.10;;;3.13;;
73599;SDS011;61877;48.246;9.220;2023-07-20T06:07:12;8.00;;;3.50;;
73599;SDS011;61877;48.246;9.220;2023-07-20T06:09:37;8.20;;;3.20;;
73599;SDS011;61877;48.246;9.220;2023-07-20T06:12:03;8.13;;;3.40;;
73599;SDS011;61877;48.246;9.220;2023-07-20T06:14:29;8.10;;;3.00;;
73599;SDS011;61877;48.246;9.220;2023-07-20T06:16:54;7.23;;;3.40;;
73599;SDS011;61877;48.246;9.220;2023-07-20T06:19:20;7.47;;;3.40;;
73599;SDS011;61877;48.246;9.220;2023-07-20T06:21:46;7.43;;;3.00;;
73599;SDS011;61877;48.246;9.220;2023-07-20T06:24:12;7.93;;;3.20;;
73599;SDS011;61877;48.246;9.220;2023-07-20T06:26:37;8.47;;;3.30;;
73599;SDS011;61877;48.246;9.220;2023-07-20T06:29:03;8.20;;;3.00;;
73599;SDS011;61877;48.246;9.220;2023-07-20T06:31:31;7.78;;;2.95;;
73599;SDS011;61877;48.246;9.220;2023-07-20T06:33:57;7.27;;;3.07;;
73599;SDS011;61877;48.246;9.220;2023-07-20T06:36:24;8.60;;;3.15;;
73599;SDS011;61877;48.246;9.220;2023-07-20T06:38:51;7.70;;;2.88;;
73599;SDS011;61877;48.246;9.220;2023-07-20T06:41:17;7.35;;;2.90;;
73599;SDS011;61877;48.246;9.220;2023-07-20T06:43:42;8.17;;;3.00;;
73599;SDS011;61877;48.246;9.220;2023-07-20T06:46:08;8.83;;;2.97;;
73599;SDS011;61877;48.246;9.220;2023-07-20T06:48:33;8.70;;;3.10;;
73599;SDS011;61877;48.246;9.220;2023-07-20T06:50:59;7.23;;;2.90;;
73599;SDS011;61877;48.246;9.220;2023-07-20T06:53:24;8.27;;;3.25;;
73599;SDS011;61877;48.246;9.220;2023-07-20T06:55:51;8.10;;;3.03;;
73599;SDS011;61877;48.246;9.220;2023-07-20T06:58:17;6.90;;;2.90;;
73599;SDS011;61877;48.246;9.220;2023-07-20T07:00:42;8.40;;;2.90;;
73599;SDS011;61877;48.246;9.220;2023-07-20T07:03:08;9.43;;;3.17;;
73599;SDS011;61877;48.246;9.220;2023-07-20T07:05:35;7.07;;;2.90;;
73599;SDS011;61877;48.246;9.220;2023-07-20T07:08:01;6.93;;;2.88;;
73599;SDS011;61877;48.246;9.220;2023-07-20T07:10:26;7.40;;;3.03;;
73599;SDS011;61877;48.246;9.220;2023-07-20T07:12:54;8.13;;;2.90;;
73599;SDS011;61877;48.246;9.220;2023-07-20T07:15:20;6.97;;;2.70;;
73599;SDS011;61877;48.246;9.220;2023-07-20T07:17:45;8.15;;;3.10;;
73599;SDS011;61877;48.246;9.220;2023-07-20T07:20:11;8.87;;;2.90;;
73599;SDS011;61877;48.246;9.220;2023-07-20T07:22:36;7.38;;;3.20;;
73599;SDS011;61877;48.246;9.220;2023-07-20T07:25:02;7.63;;;2.90;;
73599;SDS011;61877;48.246;9.220;2023-07-20T07:27:28;7.72;;;3.03;;
73599;SDS011;61877;48.246;9.220;2023-07-20T07:29:55;8.70;;;2.80;;
73599;SDS011;61877;48.246;9.220;2023-07-20T07:32:20;7.10;;;3.35;;
73599;SDS011;61877;48.246;9.220;2023-07-20T07:34:46;7.70;;;3.23;;
73599;SDS011;61877;48.246;9.220;2023-07-20T07:37:11;8.07;;;3.10;;
73599;SDS011;61877;48.246;9.220;2023-07-20T07:39:37;7.13;;;2.73;;
73599;SDS011;61877;48.246;9.220;2023-07-20T07:42:02;7.60;;;3.00;;
73599;SDS011;61877;48.246;9.220;2023-07-20T07:44:28;7.47;;;3.00;;
73599;SDS011;61877;48.246;9.220;2023-07-20T07:46:55;7.77;;;3.00;;
73599;SDS011;61877;48.246;9.220;2023-07-20T07:49:20;6.63;;;2.90;;
73599;SDS011;61877;48.246;9.220;2023-07-20T07:51:46;7.57;;;3.17;;
73599;SDS011;61877;48.246;9.220;2023-07-20T07:54:11;7.25;;;2.60;;
73599;SDS011;61877;48.246;9.220;2023-07-20T07:56:37;6.77;;;2.83;;
73599;SDS011;61877;48.246;9.220;2023-07-20T07:59:02;8.10;;;2.60;;
73599;SDS011;61877;48.246;9.220;2023-07-20T08:01:28;7.50;;;2.70;;
73599;SDS011;61877;48.246;9.220;2023-07-20T08:03:55;7.55;;;2.90;;
73599;SDS011;61877;48.246;9.220;2023-07-20T08:06:20;8.10;;;2.88;;
73599;SDS011;61877;48.246;9.220;2023-07-20T08:08:46;7.13;;;2.80;;
73599;SDS011;61877;48.246;9.220;2023-07-20T08:11:13;7.63;;;2.80;;
73599;SDS011;61877;48.246;9.220;2023-07-20T08:13:38;6.80;;;2.50;;
73599;SDS011;61877;48.246;9.220;2023-07-20T08:16:04;6.40;;;2.37;;
73599;SDS011;61877;48.246;9.220;2023-07-20T08:18:29;6.33;;;2.30;;
73599;SDS011;61877;48.246;9.220;2023-07-20T08:20:56;7.47;;;2.75;;
73599;SDS011;61877;48.246;9.220;2023-07-20T08:23:21;7.47;;;2.60;;
73599;SDS011;61877;48.246;9.220;2023-07-20T08:25:47;6.93;;;2.42;;
73599;SDS011;61877;48.246;9.220;2023-07-20T08:28:13;8.10;;;3.00;;
73599;SDS011;61877;48.246;9.220;2023-07-20T08:30:40;9.45;;;4.10;;
73599;SDS011;61877;48.246;9.220;2023-07-20T08:33:06;7.32;;;3.10;;
73599;SDS011;61877;48.246;9.220;2023-07-20T08:35:35;8.02;;;3.10;;
73599;SDS011;61877;48.246;9.220;2023-07-20T08:38:02;6.77;;;2.60;;
73599;SDS011;61877;48.246;9.220;2023-07-20T08:40:30;11.00;;;2.65;;
73599;SDS011;61877;48.246;9.220;2023-07-20T08:42:55;7.07;;;2.50;;
73599;SDS011;61877;48.246;9.220;2023-07-20T08:45:23;6.07;;;2.20;;
73599;SDS011;61877;48.246;9.220;2023-07-20T08:47:54;6.55;;;2.30;;
73599;SDS011;61877;48.246;9.220;2023-07-20T08:50:21;7.32;;;2.38;;
73599;SDS011;61877;48.246;9.220;2023-07-20T08:52:47;6.30;;;2.10;;
73599;SDS011;61877;48.246;9.220;2023-07-20T08:55:16;6.00;;;2.38;;
73599;SDS011;61877;48.246;9.220;2023-07-20T08:57:45;7.15;;;2.20;;
73599;SDS011;61877;48.246;9.220;2023-07-20T09:00:11;6.40;;;2.20;;
73599;SDS011;61877;48.246;9.220;2023-07-20T09:02:39;6.63;;;2.28;;
73599;SDS011;61877;48.246;9.220;2023-07-20T09:05:05;7.63;;;2.50;;
73599;SDS011;61877;48.246;9.220;2023-07-20T09:07:33;6.65;;;2.63;;
73599;SDS011;61877;48.246;9.220;2023-07-20T09:10:00;6.85;;;2.45;;
73599;SDS011;61877;48.246;9.220;2023-07-20T09:12:27;6.57;;;2.40;;
73599;SDS011;61877;48.246;9.220;2023-07-20T09:14:53;7.13;;;2.50;;
73599;SDS011;61877;48.246;9.220;2023-07-20T09:17:24;6.30;;;2.80;;
73599;SDS011;61877;48.246;9.220;2023-07-20T09:19:51;7.00;;;2.63;;
73599;SDS011;61877;48.246;9.220;2023-07-20T09:22:16;7.82;;;2.20;;
73599;SDS011;61877;48.246;9.220;2023-07-20T09:24:42;6.30;;;2.47;;
73599;SDS011;61877;48.246;9.220;2023-07-20T09:27:07;6.47;;;2.47;;
73599;SDS011;61877;48.246;9.220;2023-07-20T09:29:34;7.22;;;2.40;;
73599;SDS011;61877;48.246;9.220;2023-07-20T09:32:02;6.10;;;2.20;;
73599;SDS011;61877;48.246;9.220;2023-07-20T09:34:29;6.63;;;2.30;;
73599;SDS011;61877;48.246;9.220;2023-07-20T09:36:55;6.35;;;2.35;;
73599;SDS011;61877;48.246;9.220;2023-07-20T09:39:20;7.72;;;2.63;;
73599;SDS011;61877;48.246;9.220;2023-07-20T09:41:46;7.30;;;2.70;;
73599;SDS011;61877;48.246;9.220;2023-07-20T09:44:13;6.25;;;2.55;;
73599;SDS011;61877;48.246;9.220;2023-07-20T09:46:44;7.30;;;2.40;;
73599;SDS011;61877;48.246;9.220;2023-07-20T09:49:17;7.03;;;2.20;;
73599;SDS011;61877;48.246;9.220;2023-07-20T09:52:08;7.43;;;2.55;;
73599;SDS011;61877;48.246;9.220;2023-07-20T09:54:35;7.13;;;2.50;;
73599;SDS011;61877;48.246;9.220;2023-07-20T09:57:03;7.20;;;2.80;;
73599;SDS011;61877;48.246;9.220;2023-07-20T09:59:59;8.93;;;2.90;;
73599;SDS011;61877;48.246;9.220;2023-07-20T10:02:34;7.63;;;2.70;;
73599;SDS011;61877;48.246;9.220;2023-07-20T10:05:07;6.55;;;2.60;;
73599;SDS011;61877;48.246;9.220;2023-07-20T10:07:36;6.68;;;2.30;;
73599;SDS011;61877;48.246;9.220;2023-07-20T10:10:08;7.20;;;2.50;;
73599;SDS011;61877;48.246;9.220;2023-07-20T10:12:35;7.03;;;2.60;;
73599;SDS011;61877;48.246;9.220;2023-07-20T10:15:05;7.63;;;2.55;;
73599;SDS011;61877;48.246;9.220;2023-07-20T10:17:47;6.28;;;2.60;;
73599;SDS011;61877;48.246;9.220;2023-07-20T10:20:22;6.72;;;2.53;;
73599;SDS011;61877;48.246;9.220;2023-07-20T10:22:54;7.45;;;2.50;;
73599;SDS011;61877;48.246;9.220;2023-07-20T10:25:24;8.23;;;2.37;;
73599;SDS011;61877;48.246;9.220;2023-07-20T10:27:53;7.30;;;2.22;;
73599;SDS011;61877;48.246;9.220;2023-07-20T10:30:20;6.00;;;2.37;;
73599;SDS011;61877;48.246;9.220;2023-07-20T10:32:47;6.93;;;2.40;;
73599;SDS011;61877;48.246;9.220;2023-07-20T10:35:13;6.13;;;2.30;;
73599;SDS011;61877;48.246;9.220;2023-07-20T10:37:50;6.53;;;2.30;;
73599;SDS011;61877;48.246;9.220;2023-07-20T10:40:29;7.68;;;2.22;;
73599;SDS011;61877;48.246;9.220;2023-07-20T10:42:56;6.53;;;2.43;;
73599;SDS011;61877;48.246;9.220;2023-07-20T10:45:32;7.60;;;2.45;;
73599;SDS011;61877;48.246;9.220;2023-07-20T10:48:06;6.45;;;2.35;;
73599;SDS011;61877;48.246;9.220;2023-07-20T10:50:39;8.55;;;2.47;;
73599;SDS011;61877;48.246;9.220;2023-07-20T10:53:09;7.25;;;2.40;;
73599;SDS011;61877;48.246;9.220;2023-07-20T10:55:36;6.80;;;2.30;;
73599;SDS011;61877;48.246;9.220;2023-07-20T10:58:08;6.57;;;2.40;;
73599;SDS011;61877;48.246;9.220;2023-07-20T11:00:35;6.60;;;2.30;;
73599;SDS011;61877;48.246;9.220;2023-07-20T11:03:01;6.97;;;2.30;;
73599;SDS011;61877;48.246;9.220;2023-07-20T11:05:38;6.55;;;2.17;;
73599;SDS011;61877;48.246;9.220;2023-07-20T11:08:04;6.63;;;2.35;;
73599;SDS011;61877;48.246;9.220;2023-07-20T11:10:31;8.05;;;2.40;;
73599;SDS011;61877;48.246;9.220;2023-07-20T11:13:19;6.67;;;2.20;;
73599;SDS011;61877;48.246;9.220;2023-07-20T11:15:46;6.18;;;2.20;;
73599;SDS011;61877;48.246;9.220;2023-07-20T11:18:13;7.50;;;2.30;;
73599;SDS011;61877;48.246;9.220;2023-07-20T11:20:40;6.40;;;2.42;;
73599;SDS011;61877;48.246;9.220;2023-07-20T11:23:06;7.07;;;2.17;;
73599;SDS011;61877;48.246;9.220;2023-07-20T11:25:35;6.72;;;2.42;;
73599;SDS011;61877;48.246;9.220;2023-07-20T11:28:06;7.07;;;2.30;;
73599;SDS011;61877;48.246;9.220;2023-07-20T11:30:32;6.10;;;2.35;;
73599;SDS011;61877;48.246;9.220;2023-07-20T11:32:59;6.10;;;2.30;;
73599;SDS011;61877;48.246;9.220;2023-07-20T11:35:24;6.40;;;2.55;;
73599;SDS011;61877;48.246;9.220;2023-07-20T11:37:51;6.90;;;2.30;;
73599;SDS011;61877;48.246;9.220;2023-07-20T11:40:17;7.13;;;2.25;;
73599;SDS011;61877;48.246;9.220;2023-07-20T11:42:44;7.68;;;2.38;;
73599;SDS011;61877;48.246;9.220;2023-07-20T11:45:10;6.90;;;2.30;;
73599;SDS011;61877;48.246;9.220;2023-07-20T11:47:39;7.22;;;2.33;;
73599;SDS011;61877;48.246;9.220;2023-07-20T11:50:06;6.55;;;2.22;;
73599;SDS011;61877;48.246;9.220;2023-07-20T11:52:32;6.13;;;2.20;;
73599;SDS011;61877;48.246;9.220;2023-07-20T11:55:00;7.53;;;2.40;;
73599;SDS011;61877;48.246;9.220;2023-07-20T11:57:26;6.00;;;2.30;;
73599;SDS011;61877;48.246;9.220;2023-07-20T11:59:55;7.13;;;2.60;;
73599;SDS011;61877;48.246;9.220;2023-07-20T12:02:21;6.87;;;2.50;;
73599;SDS011;61877;48.246;9.220;2023-07-20T12:04:55;7.30;;;2.67;;
73599;SDS011;61877;48.246;9.220;2023-07-20T12:07:22;6.45;;;2.45;;
73599;SDS011;61877;48.246;9.220;2023-07-20T12:13:02;6.60;;;2.50;;
73599;SDS011;61877;48.246;9.220;2023-07-20T12:15:29;6.53;;;2.38;;
73599;SDS011;61877;48.246;9.220;2023-07-20T12:17:55;6.60;;;2.40;;
73599;SDS011;61877;48.246;9.220;2023-07-20T12:20:25;6.40;;;2.60;;
73599;SDS011;61877;48.246;9.220;2023-07-20T12:22:55;7.57;;;2.40;;
73599;SDS011;61877;48.246;9.220;2023-07-20T12:25:22;6.05;;;2.33;;
73599;SDS011;61877;48.246;9.220;2023-07-20T12:27:48;6.90;;;2.58;;
73599;SDS011;61877;48.246;9.220;2023-07-20T12:30:15;6.63;;;2.40;;
73599;SDS011;61877;48.246;9.220;2023-07-20T12:32:41;6.20;;;2.60;;
73599;SDS011;61877;48.246;9.220;2023-07-20T12:35:06;7.07;;;2.47;;
73599;SDS011;61877;48.246;9.220;2023-07-20T12:37:32;7.07;;;2.50;;
73599;SDS011;61877;48.246;9.220;2023-07-20T12:39:58;5.97;;;2.38;;
73599;SDS011;61877;48.246;9.220;2023-07-20T12:42:23;5.90;;;2.37;;
73599;SDS011;61877;48.246;9.220;2023-07-20T12:44:49;6.47;;;2.70;;
73599;SDS011;61877;48.246;9.220;2023-07-20T12:47:17;6.65;;;2.30;;
73599;SDS011;61877;48.246;9.220;2023-07-20T12:49:43;6.82;;;2.30;;
73599;SDS011;61877;48.246;9.220;2023-07-20T12:52:08;6.30;;;2.50;;
73599;SDS011;61877;48.246;9.220;2023-07-20T12:54:34;6.20;;;2.40;;
73599;SDS011;61877;48.246;9.220;2023-07-20T12:56:59;6.70;;;2.70;;
73599;SDS011;61877;48.246;9.220;2023-07-20T12:59:25;6.87;;;2.63;;
73599;SDS011;61877;48.246;9.220;2023-07-20T13:01:50;6.70;;;2.50;;
73599;SDS011;61877;48.246;9.220;2023-07-20T13:04:17;6.30;;;2.40;;
73599;SDS011;61877;48.246;9.220;2023-07-20T13:06:43;6.43;;;2.40;;
73599;SDS011;61877;48.246;9.220;2023-07-20T13:09:08;5.90;;;2.20;;
73599;SDS011;61877;48.246;9.220;2023-07-20T13:11:34;6.43;;;2.40;;
73599;SDS011;61877;48.246;9.220;2023-07-20T13:14:00;6.20;;;2.50;;
73599;SDS011;61877;48.246;9.220;2023-07-20T13:16:25;6.40;;;2.53;;
73599;SDS011;61877;48.246;9.220;2023-07-20T13:18:51;7.25;;;2.30;;
73599;SDS011;61877;48.246;9.220;2023-07-20T13:21:18;7.30;;;2.60;;
73599;SDS011;61877;48.246;9.220;2023-07-20T13:23:43;6.65;;;2.67;;
73599;SDS011;61877;48.246;9.220;2023-07-20T13:26:09;6.33;;;2.67;;
73599;SDS011;61877;48.246;9.220;2023-07-20T13:28:49;5.97;;;2.60;;
73599;SDS011;61877;48.246;9.220;2023-07-20T13:31:17;6.97;;;2.47;;
73599;SDS011;61877;48.246;9.220;2023-07-20T13:33:42;6.45;;;2.63;;
73599;SDS011;61877;48.246;9.220;2023-07-20T13:36:08;7.77;;;2.63;;
73599;SDS011;61877;48.246;9.220;2023-07-20T13:38:35;6.67;;;2.43;;
73599;SDS011;61877;48.246;9.220;2023-07-20T13:41:00;6.45;;;2.63;;
73599;SDS011;61877;48.246;9.220;2023-07-20T13:43:26;5.90;;;2.57;;
73599;SDS011;61877;48.246;9.220;2023-07-20T13:46:00;5.97;;;2.70;;
73599;SDS011;61877;48.246;9.220;2023-07-20T13:48:25;6.07;;;2.40;;
73599;SDS011;61877;48.246;9.220;2023-07-20T13:50:51;6.63;;;2.33;;
73599;SDS011;61877;48.246;9.220;2023-07-20T13:53:16;6.27;;;2.50;;
73599;SDS011;61877;48.246;9.220;2023-07-20T13:55:43;6.90;;;2.57;;
73599;SDS011;61877;48.246;9.220;2023-07-20T13:58:09;6.63;;;2.83;;
73599;SDS011;61877;48.246;9.220;2023-07-20T14:00:34;6.93;;;2.70;;
73599;SDS011;61877;48.246;9.220;2023-07-20T14:03:00;6.15;;;2.63;;
73599;SDS011;61877;48.246;9.220;2023-07-20T14:05:27;6.27;;;2.60;;
73599;SDS011;61877;48.246;9.220;2023-07-20T14:07:52;5.97;;;2.70;;
73599;SDS011;61877;48.246;9.220;2023-07-20T14:10:18;6.63;;;2.70;;
73599;SDS011;61877;48.246;9.220;2023-07-20T14:12:45;6.20;;;2.50;;
73599;SDS011;61877;48.246;9.220;2023-07-20T14:15:10;6.00;;;2.38;;
73599;SDS011;61877;48.246;9.220;2023-07-20T14:17:38;5.88;;;2.58;;
73599;SDS011;61877;48.246;9.220;2023-07-20T14:20:04;7.95;;;2.72;;
73599;SDS011;61877;48.246;9.220;2023-07-20T14:22:31;6.33;;;2.50;;
73599;SDS011;61877;48.246;9.220;2023-07-20T14:24:56;6.03;;;2.63;;
73599;SDS011;61877;48.246;9.220;2023-07-20T14:27:24;7.83;;;2.30;;
73599;SDS011;61877;48.246;9.220;2023-07-20T14:29:51;6.20;;;2.60;;
73599;SDS011;61877;48.246;9.220;2023-07-20T14:32:20;6.57;;;2.50;;
73599;SDS011;61877;48.246;9.220;2023-07-20T14:34:48;6.93;;;2.42;;
73599;SDS011;61877;48.246;9.220;2023-07-20T14:37:14;7.18;;;2.60;;
73599;SDS011;61877;48.246;9.220;2023-07-20T14:39:40;6.80;;;2.63;;
73599;SDS011;61877;48.246;9.220;2023-07-20T14:42:05;6.20;;;2.80;;
73599;SDS011;61877;48.246;9.220;2023-07-20T14:44:32;5.73;;;2.70;;
73599;SDS011;61877;48.246;9.220;2023-07-20T14:47:00;7.20;;;3.00;;
73599;SDS011;61877;48.246;9.220;2023-07-20T14:49:29;5.97;;;2.60;;